sensor_id;sensor_type;location;lat;lon;timestamp;pressure;altitude;pressure_sealevel;temperature;humidity
30967;BME280;17649;51.836;8.330;2024-03-23T00:56:40;100344.22;;;8.74;100.00
30967;BME280;17649;51.836;8.330;2024-03-23T00:59:44;100341.09;;;8.84;100.00
30967;BME280;17649;51.836;8.330;2024-03-23T01:02:44;100336.41;;;8.75;100.00
30967;BME280;17649;51.836;8.330;2024-03-23T01:05:46;100337.19;;;8.60;100.00
30967;BME280;17649;51.836;8.330;2024-03-23T01:08:51;100336.94;;;8.49;100.00
30967;BME280;17649;51.836;8.330;2024-03-23T01:11:52;100330.78;;;8.51;100.00
30967;BME280;17649;51.836;8.330;2024-03-23T01:14:53;100339.34;;;8.52;100.00
30967;BME280;17649;51.836;8.330;2024-03-23T01:17:53;100335.78;;;8.54;100.00
30967;BME280;17649;51.836;8.330;2024-03-23T01:20:53;100327.28;;;8.52;100.00
30967;BME280;17649;51.836;8.330;2024-03-23T01:23:54;100326.84;;;8.44;100.00
30967;BME280;17649;51.836;8.330;2024-03-23T01:26:55;100322.13;;;8.52;100.00
30967;BME280;17649;51.836;8.330;2024-03-23T01:29:56;100315.41;;;8.50;100.00
30967;BME280;17649;51.836;8.330;2024-03-23T01:32:56;100313.72;;;8.49;100.00
30967;BME280;17649;51.836;8.330;2024-03-23T01:35:58;100307.72;;;8.31;100.00
30967;BME280;17649;51.836;8.330;2024-03-23T01:38:58;100308.78;;;8.27;100.00
30967;BME280;17649;51.836;8.330;2024-03-23T01:41:59;100299.69;;;8.54;100.00
30967;BME280;17649;51.836;8.330;2024-03-23T01:44:59;100289.97;;;8.25;100.00
30967;BME280;17649;51.836;8.330;2024-03-23T01:48:00;100290.41;;;8.34;100.00
30967;BME280;17649;51.836;8.330;2024-03-23T01:51:00;100284.50;;;8.31;100.00
30967;BME280;17649;51.836;8.330;2024-03-23T01:54:04;100282.41;;;8.39;100.00
30967;BME280;17649;51.836;8.330;2024-03-23T01:57:06;100265.69;;;8.63;100.00
30967;BME280;17649;51.836;8.330;2024-03-23T02:00:07;100270.28;;;8.41;100.00
30967;BME280;17649;51.836;8.330;2024-03-23T02:03:26;100276.78;;;8.31;100.00
30967;BME280;17649;51.836;8.330;2024-03-23T02:06:26;100267.69;;;8.24;100.00
30967;BME280;17649;51.836;8.330;2024-03-23T02:09:27;100252.22;;;8.41;100.00
30967;BME280;17649;51.836;8.330;2024-03-23T02:12:28;100257.63;;;8.36;100.00
30967;BME280;17649;51.836;8.330;2024-03-23T02:15:28;100251.78;;;7.98;100.00
30967;BME280;17649;51.836;8.330;2024-03-23T02:18:29;100261.88;;;8.20;100.00
30967;BME280;17649;51.836;8.330;2024-03-23T02:21:29;100254.50;;;8.13;100.00
30967;BME280;17649;51.836;8.330;2024-03-23T02:24:32;100247.69;;;8.12;100.00
30967;BME280;17649;51.836;8.330;2024-03-23T02:27:34;100256.94;;;7.98;100.00
30967;BME280;17649;51.836;8.330;2024-03-23T02:30:39;100253.94;;;7.90;100.00
30967;BME280;17649;51.836;8.330;2024-03-23T02:33:40;100256.66;;;7.87;100.00
30967;BME280;17649;51.836;8.330;2024-03-23T02:36:41;100253.69;;;7.95;100.00
30967;BME280;17649;51.836;8.330;2024-03-23T02:39:41;100248.22;;;8.01;100.00
30967;BME280;17649;51.836;8.330;2024-03-23T02:42:43;100243.91;;;7.84;100.00
30967;BME280;17649;51.836;8.330;2024-03-23T02:45:44;100229.97;;;7.88;100.00
30967;BME280;17649;51.836;8.330;2024-03-23T02:48:44;100233.63;;;7.84;100.00
30967;BME280;17649;51.836;8.330;2024-03-23T02:51:45;100232.28;;;7.77;100.00
30967;BME280;17649;51.836;8.330;2024-03-23T02:54:48;100232.50;;;7.90;100.00
30967;BME280;17649;51.836;8.330;2024-03-23T02:57:49;100230.91;;;8.04;100.00
30967;BME280;17649;51.836;8.330;2024-03-23T03:00:49;100226.56;;;7.88;100.00
30967;BME280;17649;51.836;8.330;2024-03-23T03:03:50;100224.53;;;7.77;100.00
30967;BME280;17649;51.836;8.330;2024-03-23T03:06:50;100219.38;;;7.77;100.00
30967;BME280;17649;51.836;8.330;2024-03-23T03:09:50;100209.84;;;7.79;100.00
30967;BME280;17649;51.836;8.330;2024-03-23T03:12:51;100213.19;;;7.64;100.00
30967;BME280;17649;51.836;8.330;2024-03-23T03:15:51;100233.91;;;7.43;100.00
30967;BME280;17649;51.836;8.330;2024-03-23T03:18:53;100220.34;;;7.57;100.00
30967;BME280;17649;51.836;8.330;2024-03-23T03:21:54;100235.44;;;7.47;100.00
30967;BME280;17649;51.836;8.330;2024-03-23T03:24:55;100226.16;;;7.26;100.00
30967;BME280;17649;51.836;8.330;2024-03-23T03:27:56;100219.78;;;7.16;100.00
30967;BME280;17649;51.836;8.330;2024-03-23T03:30:56;100212.59;;;7.23;100.00
30967;BME280;17649;51.836;8.330;2024-03-23T03:33:57;100208.94;;;7.09;100.00
30967;BME280;17649;51.836;8.330;2024-03-23T03:36:59;100214.16;;;7.08;100.00
30967;BME280;17649;51.836;8.330;2024-03-23T03:39:59;100210.75;;;7.07;100.00
30967;BME280;17649;51.836;8.330;2024-03-23T03:43:00;100211.75;;;7.05;100.00
30967;BME280;17649;51.836;8.330;2024-03-23T03:46:01;100220.81;;;7.12;100.00
30967;BME280;17649;51.836;8.330;2024-03-23T03:49:01;100225.50;;;7.04;100.00
30967;BME280;17649;51.836;8.330;2024-03-23T03:52:02;100225.34;;;7.07;100.00
30967;BME280;17649;51.836;8.330;2024-03-23T03:55:12;100224.53;;;7.06;100.00
30967;BME280;17649;51.836;8.330;2024-03-23T03:58:12;100219.16;;;7.11;100.00
30967;BME280;17649;51.836;8.330;2024-03-23T04:01:13;100206.81;;;7.00;100.00
30967;BME280;17649;51.836;8.330;2024-03-23T04:04:15;100202.44;;;6.83;100.00
30967;BME280;17649;51.836;8.330;2024-03-23T04:07:16;100202.44;;;6.65;100.00
30967;BME280;17649;51.836;8.330;2024-03-23T04:10:18;100200.78;;;6.64;100.00
30967;BME280;17649;51.836;8.330;2024-03-23T04:13:19;100212.47;;;6.71;100.00
30967;BME280;17649;51.836;8.330;2024-03-23T04:16:29;100214.53;;;6.63;100.00
30967;BME280;17649;51.836;8.330;2024-03-23T04:19:30;100210.38;;;6.79;100.00
30967;BME280;17649;51.836;8.330;2024-03-23T04:22:30;100192.84;;;6.87;100.00
30967;BME280;17649;51.836;8.330;2024-03-23T04:25:31;100199.53;;;6.72;100.00
30967;BME280;17649;51.836;8.330;2024-03-23T04:28:31;100203.69;;;6.94;100.00
30967;BME280;17649;51.836;8.330;2024-03-23T04:31:32;100207.69;;;6.99;100.00
30967;BME280;17649;51.836;8.330;2024-03-23T04:34:35;100203.03;;;7.07;100.00
30967;BME280;17649;51.836;8.330;2024-03-23T04:37:36;100205.19;;;6.98;100.00
30967;BME280;17649;51.836;8.330;2024-03-23T04:40:36;100199.78;;;6.66;100.00
30967;BME280;17649;51.836;8.330;2024-03-23T04:43:37;100208.09;;;7.09;100.00
30967;BME280;17649;51.836;8.330;2024-03-23T04:46:37;100187.63;;;7.25;100.00
30967;BME280;17649;51.836;8.330;2024-03-23T04:49:38;100149.56;;;7.31;100.00
30967;BME280;17649;51.836;8.330;2024-03-23T04:52:38;100153.22;;;7.44;100.00
30967;BME280;17649;51.836;8.330;2024-03-23T04:55:38;100176.34;;;7.27;100.00
30967;BME280;17649;51.836;8.330;2024-03-23T04:58:39;100178.28;;;7.05;100.00
30967;BME280;17649;51.836;8.330;2024-03-23T05:01:39;100169.59;;;7.07;100.00
30967;BME280;17649;51.836;8.330;2024-03-23T05:04:42;100174.31;;;6.98;100.00
30967;BME280;17649;51.836;8.330;2024-03-23T05:07:42;100186.66;;;6.91;100.00
30967;BME280;17649;51.836;8.330;2024-03-23T05:10:43;100187.50;;;6.92;100.00
30967;BME280;17649;51.836;8.330;2024-03-23T05:13:43;100185.81;;;6.91;100.00
30967;BME280;17649;51.836;8.330;2024-03-23T05:16:44;100164.78;;;7.18;100.00
30967;BME280;17649;51.836;8.330;2024-03-23T05:19:44;100171.06;;;7.30;100.00
30967;BME280;17649;51.836;8.330;2024-03-23T05:22:44;100166.50;;;7.01;100.00
30967;BME280;17649;51.836;8.330;2024-03-23T05:25:45;100176.66;;;6.85;100.00
30967;BME280;17649;51.836;8.330;2024-03-23T05:28:45;100181.81;;;6.85;100.00
30967;BME280;17649;51.836;8.330;2024-03-23T05:31:49;100171.06;;;6.94;100.00
30967;BME280;17649;51.836;8.330;2024-03-23T05:34:50;100162.97;;;6.84;100.00
30967;BME280;17649;51.836;8.330;2024-03-23T05:37:58;100177.97;;;6.94;100.00
30967;BME280;17649;51.836;8.330;2024-03-23T05:41:00;100175.69;;;6.87;100.00
30967;BME280;17649;51.836;8.330;2024-03-23T05:44:02;100180.34;;;6.79;100.00
30967;BME280;17649;51.836;8.330;2024-03-23T05:47:02;100182.06;;;6.79;100.00
30967;BME280;17649;51.836;8.330;2024-03-23T05:50:04;100180.34;;;6.61;100.00
30967;BME280;17649;51.836;8.330;2024-03-23T05:53:04;100179.50;;;6.79;100.00
30967;BME280;17649;51.836;8.330;2024-03-23T05:56:05;100176.09;;;6.78;100.00
30967;BME280;17649;51.836;8.330;2024-03-23T05:59:07;100174.91;;;6.67;100.00
30967;BME280;17649;51.836;8.330;2024-03-23T06:02:07;100173.19;;;6.67;100.00
30967;BME280;17649;51.836;8.330;2024-03-23T06:05:11;100177.31;;;6.71;100.00
30967;BME280;17649;51.836;8.330;2024-03-23T06:20:52;100193.88;;;6.83;100.00
30967;BME280;17649;51.836;8.330;2024-03-23T06:23:53;100188.94;;;6.97;100.00
30967;BME280;17649;51.836;8.330;2024-03-23T06:26:54;100186.81;;;6.88;100.00
30967;BME280;17649;51.836;8.330;2024-03-23T06:29:57;100190.13;;;6.90;100.00
30967;BME280;17649;51.836;8.330;2024-03-23T06:32:58;100192.16;;;7.20;100.00
30967;BME280;17649;51.836;8.330;2024-03-23T06:35:58;100192.84;;;7.23;100.00
30967;BME280;17649;51.836;8.330;2024-03-23T06:38:58;100193.00;;;7.37;100.00
30967;BME280;17649;51.836;8.330;2024-03-23T06:41:59;100193.00;;;7.37;100.00
30967;BME280;17649;51.836;8.330;2024-03-23T06:48:09;100193.34;;;7.12;100.00
30967;BME280;17649;51.836;8.330;2024-03-23T06:51:10;100192.25;;;7.18;100.00
30967;BME280;17649;51.836;8.330;2024-03-23T06:54:10;100198.78;;;7.06;100.00
30967;BME280;17649;51.836;8.330;2024-03-23T07:13:01;100192.72;;;7.78;100.00
30967;BME280;17649;51.836;8.330;2024-03-23T07:16:02;100199.38;;;7.82;100.00
30967;BME280;17649;51.836;8.330;2024-03-23T07:19:02;100191.84;;;8.12;100.00
30967;BME280;17649;51.836;8.330;2024-03-23T07:22:02;100183.72;;;8.20;100.00
30967;BME280;17649;51.836;8.330;2024-03-23T07:25:03;100184.69;;;7.84;100.00
30967;BME280;17649;51.836;8.330;2024-03-23T07:28:03;100184.38;;;7.56;100.00
30967;BME280;17649;51.836;8.330;2024-03-23T07:31:05;100181.66;;;7.76;100.00
30967;BME280;17649;51.836;8.330;2024-03-23T07:34:06;100177.66;;;7.53;100.00
30967;BME280;17649;51.836;8.330;2024-03-23T07:40:17;100190.44;;;7.89;100.00
30967;BME280;17649;51.836;8.330;2024-03-23T07:43:17;100190.63;;;8.02;100.00
30967;BME280;17649;51.836;8.330;2024-03-23T07:49:22;100200.34;;;8.30;100.00
30967;BME280;17649;51.836;8.330;2024-03-23T07:52:22;100194.41;;;8.45;100.00
30967;BME280;17649;51.836;8.330;2024-03-23T07:55:23;100198.50;;;8.16;100.00
30967;BME280;17649;51.836;8.330;2024-03-23T07:58:24;100199.28;;;8.01;100.00
30967;BME280;17649;51.836;8.330;2024-03-23T08:01:24;100196.75;;;8.17;100.00
30967;BME280;17649;51.836;8.330;2024-03-23T08:04:26;100192.41;;;7.84;100.00
30967;BME280;17649;51.836;8.330;2024-03-23T08:07:26;100201.19;;;7.97;100.00
30967;BME280;17649;51.836;8.330;2024-03-23T08:19:57;100199.03;;;8.23;100.00
30967;BME280;17649;51.836;8.330;2024-03-23T08:22:58;100201.69;;;8.21;100.00
30967;BME280;17649;51.836;8.330;2024-03-23T08:26:02;100201.09;;;8.49;100.00
30967;BME280;17649;51.836;8.330;2024-03-23T08:32:13;100195.38;;;8.27;100.00
30967;BME280;17649;51.836;8.330;2024-03-23T08:35:13;100188.88;;;8.20;100.00
30967;BME280;17649;51.836;8.330;2024-03-23T08:38:14;100183.84;;;8.17;100.00
30967;BME280;17649;51.836;8.330;2024-03-23T08:41:14;100179.22;;;8.56;100.00
30967;BME280;17649;51.836;8.330;2024-03-23T08:44:14;100186.47;;;8.65;100.00
30967;BME280;17649;51.836;8.330;2024-03-23T08:47:16;100188.13;;;8.66;100.00
30967;BME280;17649;51.836;8.330;2024-03-23T08:50:16;100181.97;;;8.69;100.00
30967;BME280;17649;51.836;8.330;2024-03-23T08:53:17;100191.09;;;9.06;100.00
30967;BME280;17649;51.836;8.330;2024-03-23T08:56:17;100194.25;;;9.27;100.00
30967;BME280;17649;51.836;8.330;2024-03-23T08:59:21;100181.03;;;9.92;100.00
30967;BME280;17649;51.836;8.330;2024-03-23T09:02:23;100182.34;;;9.99;100.00
30967;BME280;17649;51.836;8.330;2024-03-23T09:05:24;100173.84;;;10.11;100.00
30967;BME280;17649;51.836;8.330;2024-03-23T09:08:24;100177.56;;;9.63;100.00
30967;BME280;17649;51.836;8.330;2024-03-23T09:24:06;100204.06;;;8.08;100.00
30967;BME280;17649;51.836;8.330;2024-03-23T09:27:06;100193.63;;;7.94;100.00
30967;BME280;17649;51.836;8.330;2024-03-23T09:30:07;100196.94;;;7.96;100.00
30967;BME280;17649;51.836;8.330;2024-03-23T09:33:11;100186.31;;;8.20;100.00
30967;BME280;17649;51.836;8.330;2024-03-23T09:36:12;100190.13;;;8.77;100.00
30967;BME280;17649;51.836;8.330;2024-03-23T09:39:12;100191.94;;;9.07;100.00
30967;BME280;17649;51.836;8.330;2024-03-23T09:42:13;100190.44;;;9.03;100.00
30967;BME280;17649;51.836;8.330;2024-03-23T10:07:34;100139.78;;;10.33;100.00
30967;BME280;17649;51.836;8.330;2024-03-23T10:10:34;100145.03;;;10.87;100.00
30967;BME280;17649;51.836;8.330;2024-03-23T10:13:35;100180.09;;;9.93;100.00
30967;BME280;17649;51.836;8.330;2024-03-23T10:16:35;100203.16;;;8.43;100.00
30967;BME280;17649;51.836;8.330;2024-03-23T10:19:35;100205.16;;;6.80;100.00
30967;BME280;17649;51.836;8.330;2024-03-23T10:22:36;100195.09;;;6.18;100.00
30967;BME280;17649;51.836;8.330;2024-03-23T10:25:39;100205.00;;;6.07;100.00
30967;BME280;17649;51.836;8.330;2024-03-23T10:28:53;100192.25;;;6.24;100.00
30967;BME280;17649;51.836;8.330;2024-03-23T10:31:53;100184.31;;;6.49;100.00
30967;BME280;17649;51.836;8.330;2024-03-23T10:34:55;100177.22;;;6.73;100.00
30967;BME280;17649;51.836;8.330;2024-03-23T10:37:55;100176.47;;;7.07;100.00
30967;BME280;17649;51.836;8.330;2024-03-23T10:40:57;100183.63;;;7.36;100.00
30967;BME280;17649;51.836;8.330;2024-03-23T10:43:58;100173.94;;;7.41;100.00
30967;BME280;17649;51.836;8.330;2024-03-23T10:46:59;100164.81;;;7.86;100.00
30967;BME280;17649;51.836;8.330;2024-03-23T10:50:00;100169.09;;;8.20;100.00
30967;BME280;17649;51.836;8.330;2024-03-23T10:53:00;100166.97;;;8.76;100.00
30967;BME280;17649;51.836;8.330;2024-03-23T10:56:02;100162.97;;;9.02;100.00
30967;BME280;17649;51.836;8.330;2024-03-23T10:59:02;100152.72;;;9.46;100.00
30967;BME280;17649;51.836;8.330;2024-03-23T11:02:05;100153.31;;;9.79;100.00
30967;BME280;17649;51.836;8.330;2024-03-23T11:08:30;100153.50;;;9.76;100.00
30967;BME280;17649;51.836;8.330;2024-03-23T11:24:14;100149.34;;;11.53;100.00
30967;BME280;17649;51.836;8.330;2024-03-23T11:27:17;100156.94;;;9.91;100.00
30967;BME280;17649;51.836;8.330;2024-03-23T11:36:38;100159.50;;;9.77;100.00
30967;BME280;17649;51.836;8.330;2024-03-23T11:39:39;100147.72;;;11.25;100.00
30967;BME280;17649;51.836;8.330;2024-03-23T11:42:39;100136.56;;;12.75;100.00
30967;BME280;17649;51.836;8.330;2024-03-23T11:45:43;100135.16;;;12.95;100.00
30967;BME280;17649;51.836;8.330;2024-03-23T11:48:49;100129.28;;;14.30;100.00
30967;BME280;17649;51.836;8.330;2024-03-23T11:51:49;100119.56;;;14.87;100.00
30967;BME280;17649;51.836;8.330;2024-03-23T11:54:49;100115.56;;;15.15;100.00
30967;BME280;17649;51.836;8.330;2024-03-23T11:57:50;100103.59;;;15.75;100.00
30967;BME280;17649;51.836;8.330;2024-03-23T12:00:52;100103.06;;;14.77;100.00
30967;BME280;17649;51.836;8.330;2024-03-23T12:03:52;100108.34;;;13.19;100.00
30967;BME280;17649;51.836;8.330;2024-03-23T12:07:09;100100.06;;;13.93;100.00
30967;BME280;17649;51.836;8.330;2024-03-23T12:10:09;100098.28;;;13.83;100.00
30967;BME280;17649;51.836;8.330;2024-03-23T12:13:10;100115.50;;;12.43;100.00
30967;BME280;17649;51.836;8.330;2024-03-23T12:19:11;100197.34;;;7.89;100.00
30967;BME280;17649;51.836;8.330;2024-03-23T12:22:11;100192.72;;;6.71;100.00
30967;BME280;17649;51.836;8.330;2024-03-23T12:25:11;100183.97;;;7.11;100.00
30967;BME280;17649;51.836;8.330;2024-03-23T12:28:12;100175.31;;;7.48;100.00
30967;BME280;17649;51.836;8.330;2024-03-23T12:31:15;100163.16;;;8.18;100.00
30967;BME280;17649;51.836;8.330;2024-03-23T12:34:15;100156.97;;;9.01;100.00
30967;BME280;17649;51.836;8.330;2024-03-23T12:37:17;100149.34;;;9.30;100.00
30967;BME280;17649;51.836;8.330;2024-03-23T12:46:36;100129.25;;;10.07;100.00
30967;BME280;17649;51.836;8.330;2024-03-23T12:49:36;100136.84;;;10.66;100.00
30967;BME280;17649;51.836;8.330;2024-03-23T12:52:37;100117.56;;;11.11;100.00
30967;BME280;17649;51.836;8.330;2024-03-23T12:55:37;100130.44;;;12.76;100.00
30967;BME280;17649;51.836;8.330;2024-03-23T12:58:37;100124.75;;;12.71;100.00
30967;BME280;17649;51.836;8.330;2024-03-23T13:01:38;100122.94;;;12.48;100.00
30967;BME280;17649;51.836;8.330;2024-03-23T13:04:38;100126.81;;;13.27;100.00
30967;BME280;17649;51.836;8.330;2024-03-23T13:07:38;100128.19;;;13.55;100.00
30967;BME280;17649;51.836;8.330;2024-03-23T13:10:39;100129.28;;;14.85;100.00
30967;BME280;17649;51.836;8.330;2024-03-23T13:13:39;100140.88;;;14.92;100.00
30967;BME280;17649;51.836;8.330;2024-03-23T13:16:40;100140.75;;;13.13;100.00
30967;BME280;17649;51.836;8.330;2024-03-23T13:19:40;100142.47;;;11.91;100.00
30967;BME280;17649;51.836;8.330;2024-03-23T13:22:41;100155.78;;;11.08;100.00
30967;BME280;17649;51.836;8.330;2024-03-23T13:25:48;100144.78;;;12.33;100.00
30967;BME280;17649;51.836;8.330;2024-03-23T13:28:49;100134.19;;;13.55;100.00
30967;BME280;17649;51.836;8.330;2024-03-23T13:31:51;100117.44;;;13.82;100.00
30967;BME280;17649;51.836;8.330;2024-03-23T13:34:51;100113.53;;;13.98;100.00
30967;BME280;17649;51.836;8.330;2024-03-23T13:37:52;100104.94;;;13.29;100.00
30967;BME280;17649;51.836;8.330;2024-03-23T13:40:55;100123.44;;;12.16;100.00
30967;BME280;17649;51.836;8.330;2024-03-23T13:43:58;100124.41;;;13.00;100.00
30967;BME280;17649;51.836;8.330;2024-03-23T13:46:59;100119.63;;;12.09;100.00
30967;BME280;17649;51.836;8.330;2024-03-23T13:49:59;100115.16;;;11.48;100.00
30967;BME280;17649;51.836;8.330;2024-03-23T13:53:00;100104.06;;;10.93;100.00
30967;BME280;17649;51.836;8.330;2024-03-23T13:56:00;100102.75;;;10.32;100.00
30967;BME280;17649;51.836;8.330;2024-03-23T13:59:00;100113.75;;;10.07;100.00
30967;BME280;17649;51.836;8.330;2024-03-23T14:02:01;100152.72;;;9.46;100.00
30967;BME280;17649;51.836;8.330;2024-03-23T14:05:02;100143.44;;;8.17;100.00
30967;BME280;17649;51.836;8.330;2024-03-23T14:08:02;100142.59;;;7.16;100.00
30967;BME280;17649;51.836;8.330;2024-03-23T14:11:03;100153.50;;;7.38;100.00
30967;BME280;17649;51.836;8.330;2024-03-23T14:14:04;100122.53;;;7.23;100.00
30967;BME280;17649;51.836;8.330;2024-03-23T14:17:04;100154.97;;;7.94;100.00
30967;BME280;17649;51.836;8.330;2024-03-23T14:20:04;100136.41;;;11.13;100.00
30967;BME280;17649;51.836;8.330;2024-03-23T14:23:05;100131.22;;;12.90;100.00
30967;BME280;17649;51.836;8.330;2024-03-23T14:26:06;100129.53;;;10.99;100.00
30967;BME280;17649;51.836;8.330;2024-03-23T14:29:07;100141.63;;;9.88;100.00
30967;BME280;17649;51.836;8.330;2024-03-23T14:32:09;100128.22;;;9.96;100.00
30967;BME280;17649;51.836;8.330;2024-03-23T14:35:09;100145.72;;;9.62;100.00
30967;BME280;17649;51.836;8.330;2024-03-23T14:38:10;100153.09;;;9.40;100.00
30967;BME280;17649;51.836;8.330;2024-03-23T14:44:21;100143.59;;;10.95;100.00
30967;BME280;17649;51.836;8.330;2024-03-23T14:47:22;100125.28;;;12.27;100.00
30967;BME280;17649;51.836;8.330;2024-03-23T14:50:22;100137.31;;;12.28;100.00
30967;BME280;17649;51.836;8.330;2024-03-23T14:53:22;100140.38;;;13.30;100.00
30967;BME280;17649;51.836;8.330;2024-03-23T14:56:22;100130.31;;;12.54;100.00
30967;BME280;17649;51.836;8.330;2024-03-23T14:59:23;100136.25;;;11.29;100.00
30967;BME280;17649;51.836;8.330;2024-03-23T15:02:23;100129.75;;;10.28;100.00
30967;BME280;17649;51.836;8.330;2024-03-23T15:05:24;100132.53;;;9.52;100.00
30967;BME280;17649;51.836;8.330;2024-03-23T15:08:24;100135.44;;;9.32;100.00
30967;BME280;17649;51.836;8.330;2024-03-23T15:11:24;100132.50;;;9.38;100.00
30967;BME280;17649;51.836;8.330;2024-03-23T15:14:24;100122.13;;;9.54;100.00
30967;BME280;17649;51.836;8.330;2024-03-23T15:17:25;100118.66;;;9.25;100.00
30967;BME280;17649;51.836;8.330;2024-03-23T15:20:26;100123.44;;;9.01;100.00
30967;BME280;17649;51.836;8.330;2024-03-23T15:23:26;100119.69;;;8.91;100.00
30967;BME280;17649;51.836;8.330;2024-03-23T15:26:27;100122.59;;;9.01;100.00
30967;BME280;17649;51.836;8.330;2024-03-23T15:29:30;100121.41;;;9.06;100.00
30967;BME280;17649;51.836;8.330;2024-03-23T15:32:31;100107.91;;;8.71;100.00
30967;BME280;17649;51.836;8.330;2024-03-23T15:35:31;100110.97;;;8.93;100.00
30967;BME280;17649;51.836;8.330;2024-03-23T15:38:32;100075.22;;;9.32;100.00
30967;BME280;17649;51.836;8.330;2024-03-23T15:41:32;100077.44;;;9.52;100.00
30967;BME280;17649;51.836;8.330;2024-03-23T15:44:34;100087.78;;;9.66;100.00
30967;BME280;17649;51.836;8.330;2024-03-23T15:47:35;100080.41;;;9.46;100.00
30967;BME280;17649;51.836;8.330;2024-03-23T15:50:35;100081.22;;;9.32;100.00
30967;BME280;17649;51.836;8.330;2024-03-23T15:53:36;100075.13;;;9.33;100.00
30967;BME280;17649;51.836;8.330;2024-03-23T15:56:36;100074.22;;;9.48;100.00
30967;BME280;17649;51.836;8.330;2024-03-23T15:59:39;100077.81;;;9.46;100.00
30967;BME280;17649;51.836;8.330;2024-03-23T16:02:40;100076.47;;;9.69;100.00
30967;BME280;17649;51.836;8.330;2024-03-23T16:05:40;100063.66;;;9.53;100.00
30967;BME280;17649;51.836;8.330;2024-03-23T16:08:41;100057.84;;;9.19;100.00
30967;BME280;17649;51.836;8.330;2024-03-23T16:11:42;100055.47;;;9.31;100.00
30967;BME280;17649;51.836;8.330;2024-03-23T16:14:43;100069.13;;;9.33;100.00
30967;BME280;17649;51.836;8.330;2024-03-23T16:17:43;100051.19;;;9.01;100.00
30967;BME280;17649;51.836;8.330;2024-03-23T16:20:51;100053.94;;;8.98;100.00
30967;BME280;17649;51.836;8.330;2024-03-23T16:23:51;100061.00;;;9.10;100.00
30967;BME280;17649;51.836;8.330;2024-03-23T16:26:52;100065.13;;;9.13;100.00
30967;BME280;17649;51.836;8.330;2024-03-23T16:29:53;100058.59;;;9.21;100.00
30967;BME280;17649;51.836;8.330;2024-03-23T16:32:53;100062.97;;;9.05;100.00
30967;BME280;17649;51.836;8.330;2024-03-23T16:35:54;100068.72;;;9.10;100.00
30967;BME280;17649;51.836;8.330;2024-03-23T16:38:55;100060.28;;;9.22;100.00
30967;BME280;17649;51.836;8.330;2024-03-23T16:41:55;100069.00;;;8.90;100.00
30967;BME280;17649;51.836;8.330;2024-03-23T16:44:56;100071.59;;;8.90;100.00
30967;BME280;17649;51.836;8.330;2024-03-23T16:47:56;100063.91;;;9.04;100.00
30967;BME280;17649;51.836;8.330;2024-03-23T16:50:59;100073.94;;;9.24;100.00
30967;BME280;17649;51.836;8.330;2024-03-23T16:53:59;100059.94;;;8.99;100.00
30967;BME280;17649;51.836;8.330;2024-03-23T16:57:00;100057.78;;;8.91;100.00
30967;BME280;17649;51.836;8.330;2024-03-23T17:00:00;100065.41;;;8.78;100.00
30967;BME280;17649;51.836;8.330;2024-03-23T17:03:01;100063.25;;;9.01;100.00
30967;BME280;17649;51.836;8.330;2024-03-23T17:06:05;100068.41;;;8.71;100.00
30967;BME280;17649;51.836;8.330;2024-03-23T17:09:05;100065.78;;;8.41;100.00
30967;BME280;17649;51.836;8.330;2024-03-23T17:12:06;100058.03;;;8.56;100.00
30967;BME280;17649;51.836;8.330;2024-03-23T17:15:06;100055.81;;;8.80;100.00
30967;BME280;17649;51.836;8.330;2024-03-23T17:18:06;100055.84;;;8.64;100.00
30967;BME280;17649;51.836;8.330;2024-03-23T17:21:07;100057.06;;;8.73;100.00
30967;BME280;17649;51.836;8.330;2024-03-23T17:24:08;100051.91;;;8.73;100.00
30967;BME280;17649;51.836;8.330;2024-03-23T17:27:09;100051.00;;;8.74;100.00
30967;BME280;17649;51.836;8.330;2024-03-23T17:30:09;100055.47;;;8.41;100.00
30967;BME280;17649;51.836;8.330;2024-03-23T17:42:41;100062.66;;;8.18;100.00
30967;BME280;17649;51.836;8.330;2024-03-23T17:45:41;100065.31;;;8.17;100.00
30967;BME280;17649;51.836;8.330;2024-03-23T17:48:41;100061.50;;;8.08;100.00
30967;BME280;17649;51.836;8.330;2024-03-23T17:51:42;100064.88;;;7.93;100.00
30967;BME280;17649;51.836;8.330;2024-03-23T17:54:43;100068.66;;;8.19;100.00
30967;BME280;17649;51.836;8.330;2024-03-23T17:57:44;100105.22;;;8.10;100.00
30967;BME280;17649;51.836;8.330;2024-03-23T18:00:44;100117.81;;;7.65;100.00
30967;BME280;17649;51.836;8.330;2024-03-23T18:03:44;100129.75;;;7.33;100.00
30967;BME280;17649;51.836;8.330;2024-03-23T18:06:55;100119.81;;;7.26;100.00
30967;BME280;17649;51.836;8.330;2024-03-23T18:09:55;100125.06;;;6.88;100.00
30967;BME280;17649;51.836;8.330;2024-03-23T18:12:55;100132.81;;;6.69;100.00
30967;BME280;17649;51.836;8.330;2024-03-23T18:15:56;100126.50;;;6.39;100.00
30967;BME280;17649;51.836;8.330;2024-03-23T18:18:56;100138.94;;;6.10;100.00
30967;BME280;17649;51.836;8.330;2024-03-23T18:21:56;100125.16;;;5.92;100.00
30967;BME280;17649;51.836;8.330;2024-03-23T18:24:56;100136.88;;;5.78;100.00
30967;BME280;17649;51.836;8.330;2024-03-23T18:27:57;100135.25;;;5.56;100.00
30967;BME280;17649;51.836;8.330;2024-03-23T18:30:59;100124.59;;;5.45;100.00
30967;BME280;17649;51.836;8.330;2024-03-23T18:33:59;100132.16;;;5.48;100.00
30967;BME280;17649;51.836;8.330;2024-03-23T18:37:00;100131.59;;;5.42;100.00
30967;BME280;17649;51.836;8.330;2024-03-23T18:40:01;100130.81;;;5.60;100.00
30967;BME280;17649;51.836;8.330;2024-03-23T18:43:01;100134.47;;;5.54;100.00
30967;BME280;17649;51.836;8.330;2024-03-23T18:46:01;100133.06;;;5.47;100.00
30967;BME280;17649;51.836;8.330;2024-03-23T18:49:02;100121.53;;;5.37;100.00